sensor_id;sensor_type;location;lat;lon;timestamp;pressure;altitude;pressure_sealevel;temperature;humidity
22649;BME280;11491;41.942;24.220;2023-02-19T00:00:09;90212.63;;;2.06;78.98
22649;BME280;11491;41.942;24.220;2023-02-19T00:02:40;90217.34;;;2.09;78.84
22649;BME280;11491;41.942;24.220;2023-02-19T00:05:07;90218.00;;;2.20;77.91
22649;BME280;11491;41.942;24.220;2023-02-19T00:07:33;90211.88;;;1.81;79.65
22649;BME280;11491;41.942;24.220;2023-02-19T00:10:00;90213.78;;;1.76;80.17
22649;BME280;11491;41.942;24.220;2023-02-19T00:12:27;90210.31;;;1.80;79.95
22649;BME280;11491;41.942;24.220;2023-02-19T00:14:54;90201.34;;;1.81;80.11
22649;BME280;11491;41.942;24.220;2023-02-19T00:17:21;90190.69;;;1.91;79.27
22649;BME280;11491;41.942;24.220;2023-02-19T00:19:49;90199.50;;;2.01;78.90
22649;BME280;11491;41.942;24.220;2023-02-19T00:22:16;90195.28;;;1.81;79.68
22649;BME280;11491;41.942;24.220;2023-02-19T00:24:43;90184.53;;;1.77;79.73
22649;BME280;11491;41.942;24.220;2023-02-19T00:27:09;90183.25;;;1.93;79.11
22649;BME280;11491;41.942;24.220;2023-02-19T00:29:36;90183.03;;;1.90;78.88
22649;BME280;11491;41.942;24.220;2023-02-19T00:32:03;90188.88;;;1.87;79.14
22649;BME280;11491;41.942;24.220;2023-02-19T00:34:30;90193.78;;;1.93;78.89
22649;BME280;11491;41.942;24.220;2023-02-19T00:36:58;90184.31;;;1.92;78.59
22649;BME280;11491;41.942;24.220;2023-02-19T00:39:25;90168.84;;;1.67;79.60
22649;BME280;11491;41.942;24.220;2023-02-19T00:41:51;90169.69;;;1.81;79.09
22649;BME280;11491;41.942;24.220;2023-02-19T00:44:18;90156.72;;;1.66;79.62
22649;BME280;11491;41.942;24.220;2023-02-19T00:46:46;90153.47;;;1.74;79.48
22649;BME280;11491;41.942;24.220;2023-02-19T00:49:16;90151.88;;;1.73;79.70
22649;BME280;11491;41.942;24.220;2023-02-19T00:51:43;90151.75;;;1.83;79.27
22649;BME280;11491;41.942;24.220;2023-02-19T00:54:11;90149.16;;;1.78;80.56
22649;BME280;11491;41.942;24.220;2023-02-19T00:56:38;90137.13;;;1.72;81.38
22649;BME280;11491;41.942;24.220;2023-02-19T00:59:05;90123.53;;;1.65;80.20
22649;BME280;11491;41.942;24.220;2023-02-19T01:01:32;90142.53;;;1.62;80.74
22649;BME280;11491;41.942;24.220;2023-02-19T01:03:59;90144.03;;;1.68;80.21
22649;BME280;11491;41.942;24.220;2023-02-19T01:06:25;90129.72;;;1.74;79.65
22649;BME280;11491;41.942;24.220;2023-02-19T01:08:54;90123.72;;;1.68;79.72
22649;BME280;11491;41.942;24.220;2023-02-19T01:11:22;90122.31;;;1.76;79.22
22649;BME280;11491;41.942;24.220;2023-02-19T01:13:49;90123.97;;;1.72;79.10
22649;BME280;11491;41.942;24.220;2023-02-19T01:16:17;90114.81;;;1.83;78.96
22649;BME280;11491;41.942;24.220;2023-02-19T01:18:47;90115.25;;;1.90;78.00
22649;BME280;11491;41.942;24.220;2023-02-19T01:21:17;90115.75;;;1.92;77.39
22649;BME280;11491;41.942;24.220;2023-02-19T01:23:44;90110.03;;;1.66;77.61
22649;BME280;11491;41.942;24.220;2023-02-19T01:26:13;90113.97;;;1.69;78.41
22649;BME280;11491;41.942;24.220;2023-02-19T01:28:42;90112.41;;;1.68;78.67
22649;BME280;11491;41.942;24.220;2023-02-19T01:31:12;90104.00;;;1.66;78.44
22649;BME280;11491;41.942;24.220;2023-02-19T01:33:39;90107.84;;;1.55;78.75
22649;BME280;11491;41.942;24.220;2023-02-19T01:36:06;90116.28;;;1.51;78.38
22649;BME280;11491;41.942;24.220;2023-02-19T01:38:33;90115.81;;;1.49;79.02
22649;BME280;11491;41.942;24.220;2023-02-19T01:41:02;90122.78;;;1.40;79.36
22649;BME280;11491;41.942;24.220;2023-02-19T01:43:30;90120.06;;;1.45;79.30
22649;BME280;11491;41.942;24.220;2023-02-19T01:45:59;90105.81;;;1.46;79.08
22649;BME280;11491;41.942;24.220;2023-02-19T01:48:28;90118.72;;;1.48;79.07
22649;BME280;11491;41.942;24.220;2023-02-19T01:50:59;90104.41;;;1.35;78.88
22649;BME280;11491;41.942;24.220;2023-02-19T01:53:31;90109.44;;;1.32;79.01
22649;BME280;11491;41.942;24.220;2023-02-19T01:56:00;90110.88;;;1.43;79.28
22649;BME280;11491;41.942;24.220;2023-02-19T01:58:30;90107.41;;;1.47;79.00
22649;BME280;11491;41.942;24.220;2023-02-19T02:01:00;90103.25;;;1.41;78.87
22649;BME280;11491;41.942;24.220;2023-02-19T02:03:28;90101.56;;;1.50;79.08
22649;BME280;11491;41.942;24.220;2023-02-19T02:06:00;90100.91;;;1.59;78.37
22649;BME280;11491;41.942;24.220;2023-02-19T02:08:29;90101.41;;;1.61;78.10
22649;BME280;11491;41.942;24.220;2023-02-19T02:11:14;90099.88;;;1.60;77.30
22649;BME280;11491;41.942;24.220;2023-02-19T02:13:41;90098.84;;;1.56;78.08
22649;BME280;11491;41.942;24.220;2023-02-19T02:16:18;90097.97;;;1.41;78.58
22649;BME280;11491;41.942;24.220;2023-02-19T02:18:54;90102.19;;;1.42;79.15
22649;BME280;11491;41.942;24.220;2023-02-19T02:21:50;90092.31;;;1.53;78.12
22649;BME280;11491;41.942;24.220;2023-02-19T02:30:12;90078.75;;;1.22;79.17
22649;BME280;11491;41.942;24.220;2023-02-19T02:32:48;90090.72;;;1.33;79.35
22649;BME280;11491;41.942;24.220;2023-02-19T02:35:22;90089.84;;;1.19;78.98
22649;BME280;11491;41.942;24.220;2023-02-19T02:37:52;90073.16;;;1.04;79.74
22649;BME280;11491;41.942;24.220;2023-02-19T02:40:21;90079.41;;;1.08;79.82
22649;BME280;11491;41.942;24.220;2023-02-19T02:42:49;90100.25;;;1.29;79.01
22649;BME280;11491;41.942;24.220;2023-02-19T02:45:26;90097.00;;;0.89;81.40
22649;BME280;11491;41.942;24.220;2023-02-19T02:48:11;90094.94;;;0.86;81.51
22649;BME280;11491;41.942;24.220;2023-02-19T02:50:42;90103.03;;;0.95;81.78
22649;BME280;11491;41.942;24.220;2023-02-19T02:53:14;90099.72;;;1.08;81.51
22649;BME280;11491;41.942;24.220;2023-02-19T02:56:00;90099.38;;;1.15;80.82
22649;BME280;11491;41.942;24.220;2023-02-19T02:58:29;90090.06;;;1.22;81.05
22649;BME280;11491;41.942;24.220;2023-02-19T03:01:02;90090.06;;;1.22;80.24
22649;BME280;11491;41.942;24.220;2023-02-19T03:03:52;90104.53;;;1.25;79.95
22649;BME280;11491;41.942;24.220;2023-02-19T03:06:21;90105.38;;;1.20;80.31
22649;BME280;11491;41.942;24.220;2023-02-19T03:08:55;90113.59;;;1.14;80.65
22649;BME280;11491;41.942;24.220;2023-02-19T03:11:23;90123.16;;;1.10;80.41
22649;BME280;11491;41.942;24.220;2023-02-19T03:14:11;90128.94;;;1.06;80.35
22649;BME280;11491;41.942;24.220;2023-02-19T03:17:02;90131.03;;;1.10;80.07
22649;BME280;11491;41.942;24.220;2023-02-19T03:19:51;90141.19;;;0.97;80.28
22649;BME280;11491;41.942;24.220;2023-02-19T03:22:22;90141.66;;;0.99;80.75
22649;BME280;11491;41.942;24.220;2023-02-19T03:24:53;90144.22;;;1.10;80.34
22649;BME280;11491;41.942;24.220;2023-02-19T03:27:40;90149.81;;;1.03;79.87
22649;BME280;11491;41.942;24.220;2023-02-19T03:30:11;90144.22;;;1.10;80.09
22649;BME280;11491;41.942;24.220;2023-02-19T03:32:43;90150.94;;;1.21;79.96
22649;BME280;11491;41.942;24.220;2023-02-19T03:35:15;90147.31;;;1.12;80.41
22649;BME280;11491;41.942;24.220;2023-02-19T03:37:46;90147.06;;;1.13;80.99
22649;BME280;11491;41.942;24.220;2023-02-19T03:40:16;90147.78;;;1.19;80.79
22649;BME280;11491;41.942;24.220;2023-02-19T03:42:52;90162.97;;;1.03;80.90
22649;BME280;11491;41.942;24.220;2023-02-19T03:45:32;90141.72;;;0.94;81.11
22649;BME280;11491;41.942;24.220;2023-02-19T03:48:15;90155.84;;;1.03;80.95
22649;BME280;11491;41.942;24.220;2023-02-19T03:50:46;90161.56;;;1.11;80.53
22649;BME280;11491;41.942;24.220;2023-02-19T03:53:22;90148.34;;;1.16;79.83
22649;BME280;11491;41.942;24.220;2023-02-19T03:56:01;90149.81;;;1.03;80.15
22649;BME280;11491;41.942;24.220;2023-02-19T03:58:33;90144.22;;;1.10;79.99
22649;BME280;11491;41.942;24.220;2023-02-19T04:01:07;90144.09;;;1.20;79.26
22649;BME280;11491;41.942;24.220;2023-02-19T04:03:40;90145.88;;;1.00;81.04
22649;BME280;11491;41.942;24.220;2023-02-19T04:06:13;90130.72;;;0.63;81.81
22649;BME280;11491;41.942;24.220;2023-02-19T04:08:44;90154.03;;;0.75;82.12
22649;BME280;11491;41.942;24.220;2023-02-19T04:11:13;90157.63;;;0.84;82.30
22649;BME280;11491;41.942;24.220;2023-02-19T04:13:44;90163.91;;;0.88;81.91
22649;BME280;11491;41.942;24.220;2023-02-19T04:16:16;90156.63;;;0.80;81.91
22649;BME280;11491;41.942;24.220;2023-02-19T04:18:49;90155.75;;;0.90;81.28
22649;BME280;11491;41.942;24.220;2023-02-19T04:21:18;90156.38;;;1.05;80.10
22649;BME280;11491;41.942;24.220;2023-02-19T04:23:46;90155.41;;;0.96;80.70
22649;BME280;11491;41.942;24.220;2023-02-19T04:26:14;90159.84;;;0.72;81.12
22649;BME280;11491;41.942;24.220;2023-02-19T04:28:42;90164.00;;;0.78;81.77
22649;BME280;11491;41.942;24.220;2023-02-19T04:31:09;90164.94;;;0.92;81.87
22649;BME280;11491;41.942;24.220;2023-02-19T04:33:36;90153.94;;;0.85;81.87
22649;BME280;11491;41.942;24.220;2023-02-19T04:36:06;90161.22;;;0.93;81.24
22649;BME280;11491;41.942;24.220;2023-02-19T04:38:35;90161.13;;;1.03;80.23
22649;BME280;11491;41.942;24.220;2023-02-19T04:41:02;90161.69;;;1.00;80.52
22649;BME280;11491;41.942;24.220;2023-02-19T04:43:28;90164.81;;;1.02;79.63
22649;BME280;11491;41.942;24.220;2023-02-19T04:45:59;90161.44;;;0.97;79.78
22649;BME280;11491;41.942;24.220;2023-02-19T04:48:26;90132.47;;;0.73;79.86
22649;BME280;11491;41.942;24.220;2023-02-19T04:50:52;90169.06;;;0.98;80.83
22649;BME280;11491;41.942;24.220;2023-02-19T04:53:20;90170.19;;;0.92;80.22
22649;BME280;11491;41.942;24.220;2023-02-19T04:55:47;90169.06;;;0.98;79.69
22649;BME280;11491;41.942;24.220;2023-02-19T04:58:18;90174.66;;;0.92;79.94
22649;BME280;11491;41.942;24.220;2023-02-19T05:00:44;90183.94;;;0.84;80.33
22649;BME280;11491;41.942;24.220;2023-02-19T05:03:11;90176.56;;;0.86;80.43
22649;BME280;11491;41.942;24.220;2023-02-19T05:05:38;90182.69;;;0.76;80.93
22649;BME280;11491;41.942;24.220;2023-02-19T05:08:05;90182.94;;;0.80;82.28
22649;BME280;11491;41.942;24.220;2023-02-19T05:10:33;90188.22;;;0.80;82.12
22649;BME280;11491;41.942;24.220;2023-02-19T05:13:00;90187.09;;;0.86;81.41
22649;BME280;11491;41.942;24.220;2023-02-19T05:15:27;90201.22;;;0.95;80.55
22649;BME280;11491;41.942;24.220;2023-02-19T05:17:53;90205.72;;;0.95;80.33
22649;BME280;11491;41.942;24.220;2023-02-19T05:20:20;90207.53;;;0.94;80.27
22649;BME280;11491;41.942;24.220;2023-02-19T05:22:48;90211.75;;;0.95;80.01
22649;BME280;11491;41.942;24.220;2023-02-19T05:25:15;90217.59;;;0.92;79.82
22649;BME280;11491;41.942;24.220;2023-02-19T05:27:43;90232.06;;;0.95;79.63
22649;BME280;11491;41.942;24.220;2023-02-19T05:30:10;90230.75;;;0.92;79.99
22649;BME280;11491;41.942;24.220;2023-02-19T05:32:37;90233.91;;;0.89;80.31
22649;BME280;11491;41.942;24.220;2023-02-19T05:35:05;90227.66;;;0.85;80.94
22649;BME280;11491;41.942;24.220;2023-02-19T05:37:31;90223.19;;;0.51;82.32
22649;BME280;11491;41.942;24.220;2023-02-19T05:39:58;90237.41;;;0.50;83.18
22649;BME280;11491;41.942;24.220;2023-02-19T05:42:25;90227.59;;;0.61;83.06
22649;BME280;11491;41.942;24.220;2023-02-19T05:44:53;90235.91;;;0.73;82.96
22649;BME280;11491;41.942;24.220;2023-02-19T05:47:20;90241.66;;;0.80;81.71
22649;BME280;11491;41.942;24.220;2023-02-19T05:49:46;90256.00;;;0.93;81.40
22649;BME280;11491;41.942;24.220;2023-02-19T05:52:13;90262.63;;;0.91;81.54
22649;BME280;11491;41.942;24.220;2023-02-19T05:54:40;90258.59;;;0.98;80.56
22649;BME280;11491;41.942;24.220;2023-02-19T05:57:07;90264.44;;;0.95;81.63
22649;BME280;11491;41.942;24.220;2023-02-19T05:59:34;90267.00;;;1.00;80.84
22649;BME280;11491;41.942;24.220;2023-02-19T06:02:02;90272.19;;;1.11;81.21
22649;BME280;11491;41.942;24.220;2023-02-19T06:04:28;90269.97;;;1.23;80.68
22649;BME280;11491;41.942;24.220;2023-02-19T06:06:55;90266.25;;;1.24;81.10
22649;BME280;11491;41.942;24.220;2023-02-19T06:09:22;90274.59;;;1.36;80.39
22649;BME280;11491;41.942;24.220;2023-02-19T06:11:49;90272.91;;;1.45;79.88
22649;BME280;11491;41.942;24.220;2023-02-19T06:14:15;90271.00;;;1.51;80.21
22649;BME280;11491;41.942;24.220;2023-02-19T06:16:42;90274.28;;;1.67;79.66
22649;BME280;11491;41.942;24.220;2023-02-19T06:19:10;90280.66;;;1.61;79.41
22649;BME280;11491;41.942;24.220;2023-02-19T06:21:37;90278.38;;;1.78;79.21
22649;BME280;11491;41.942;24.220;2023-02-19T06:24:05;90274.56;;;1.89;78.91
22649;BME280;11491;41.942;24.220;2023-02-19T06:26:32;90266.97;;;2.07;78.15
22649;BME280;11491;41.942;24.220;2023-02-19T06:28:59;90270.47;;;2.21;77.98
22649;BME280;11491;41.942;24.220;2023-02-19T06:31:26;90280.84;;;2.36;77.32
22649;BME280;11491;41.942;24.220;2023-02-19T06:33:52;90280.69;;;2.47;77.49
22649;BME280;11491;41.942;24.220;2023-02-19T06:36:22;90275.28;;;2.57;77.78
22649;BME280;11491;41.942;24.220;2023-02-19T06:38:49;90277.09;;;2.75;77.71
22649;BME280;11491;41.942;24.220;2023-02-19T06:41:16;90281.28;;;2.95;78.09
22649;BME280;11491;41.942;24.220;2023-02-19T06:43:43;90274.13;;;3.15;77.24
22649;BME280;11491;41.942;24.220;2023-02-19T06:46:11;90278.28;;;3.35;76.35
22649;BME280;11491;41.942;24.220;2023-02-19T06:48:39;90282.94;;;3.43;75.69
22649;BME280;11491;41.942;24.220;2023-02-19T06:51:08;90288.31;;;3.52;75.45
22649;BME280;11491;41.942;24.220;2023-02-19T06:53:36;90274.53;;;3.22;76.01
22649;BME280;11491;41.942;24.220;2023-02-19T06:56:05;90292.59;;;3.48;76.18
22649;BME280;11491;41.942;24.220;2023-02-19T06:58:33;90283.50;;;3.40;76.91
22649;BME280;11491;41.942;24.220;2023-02-19T07:00:59;90284.84;;;3.23;78.27
22649;BME280;11491;41.942;24.220;2023-02-19T07:03:26;90266.22;;;3.61;77.21
22649;BME280;11491;41.942;24.220;2023-02-19T07:05:53;90282.88;;;4.03;76.72
22649;BME280;11491;41.942;24.220;2023-02-19T07:08:20;90270.31;;;4.37;74.84
22649;BME280;11491;41.942;24.220;2023-02-19T07:10:55;90280.06;;;4.64;74.40
22649;BME280;11491;41.942;24.220;2023-02-19T07:13:22;90271.75;;;4.93;73.31
22649;BME280;11491;41.942;24.220;2023-02-19T07:15:49;90267.72;;;5.18;72.32
22649;BME280;11491;41.942;24.220;2023-02-19T07:18:16;90274.13;;;5.39;71.61
22649;BME280;11491;41.942;24.220;2023-02-19T07:20:43;90260.69;;;5.67;70.77
22649;BME280;11491;41.942;24.220;2023-02-19T07:23:09;90264.75;;;5.96;69.58
22649;BME280;11491;41.942;24.220;2023-02-19T07:25:36;90263.59;;;6.19;69.33
22649;BME280;11491;41.942;24.220;2023-02-19T07:28:05;90251.78;;;6.43;68.32
22649;BME280;11491;41.942;24.220;2023-02-19T07:30:31;90235.72;;;6.65;67.64
22649;BME280;11491;41.942;24.220;2023-02-19T07:32:58;90231.84;;;6.89;67.07
22649;BME280;11491;41.942;24.220;2023-02-19T07:35:25;90234.78;;;7.22;66.38
22649;BME280;11491;41.942;24.220;2023-02-19T07:37:52;90236.94;;;7.46;65.95
22649;BME280;11491;41.942;24.220;2023-02-19T07:40:19;90232.19;;;7.69;65.44
22649;BME280;11491;41.942;24.220;2023-02-19T07:42:45;90239.00;;;7.96;64.79
22649;BME280;11491;41.942;24.220;2023-02-19T07:45:14;90235.50;;;8.13;64.50
22649;BME280;11491;41.942;24.220;2023-02-19T07:47:40;90213.81;;;8.24;64.52
22649;BME280;11491;41.942;24.220;2023-02-19T07:50:07;90225.53;;;8.31;64.26
22649;BME280;11491;41.942;24.220;2023-02-19T07:52:34;90222.63;;;8.54;63.61
22649;BME280;11491;41.942;24.220;2023-02-19T07:55:01;90225.75;;;8.77;63.26
22649;BME280;11491;41.942;24.220;2023-02-19T07:57:28;90227.25;;;8.87;62.72
22649;BME280;11491;41.942;24.220;2023-02-19T07:59:55;90219.28;;;9.08;62.01
22649;BME280;11491;41.942;24.220;2023-02-19T08:02:24;90210.22;;;9.21;60.98
22649;BME280;11491;41.942;24.220;2023-02-19T08:05:08;90217.84;;;9.10;60.92
22649;BME280;11491;41.942;24.220;2023-02-19T08:07:36;90205.47;;;9.26;60.78
22649;BME280;11491;41.942;24.220;2023-02-19T08:10:03;90209.84;;;9.64;59.70
22649;BME280;11491;41.942;24.220;2023-02-19T08:12:54;90215.00;;;9.82;59.04
22649;BME280;11491;41.942;24.220;2023-02-19T08:15:39;90207.44;;;10.08;55.47
22649;BME280;11491;41.942;24.220;2023-02-19T08:18:08;90204.19;;;10.36;54.55
22649;BME280;11491;41.942;24.220;2023-02-19T08:20:35;90203.72;;;10.46;54.09
22649;BME280;11491;41.942;24.220;2023-02-19T08:23:02;90205.66;;;10.98;54.52
22649;BME280;11491;41.942;24.220;2023-02-19T08:25:29;90202.25;;;11.54;52.99
22649;BME280;11491;41.942;24.220;2023-02-19T08:27:55;90206.34;;;12.08;50.67
22649;BME280;11491;41.942;24.220;2023-02-19T08:30:25;90196.94;;;12.30;46.99
22649;BME280;11491;41.942;24.220;2023-02-19T08:32:52;90201.50;;;12.61;45.97
22649;BME280;11491;41.942;24.220;2023-02-19T08:35:20;90206.81;;;12.93;46.36
22649;BME280;11491;41.942;24.220;2023-02-19T08:37:47;90197.53;;;13.26;43.87
22649;BME280;11491;41.942;24.220;2023-02-19T08:40:14;90206.50;;;13.49;43.08
22649;BME280;11491;41.942;24.220;2023-02-19T08:42:41;90207.31;;;13.53;42.58
22649;BME280;11491;41.942;24.220;2023-02-19T08:45:08;90207.47;;;13.61;43.13
22649;BME280;11491;41.942;24.220;2023-02-19T08:47:35;90195.94;;;14.22;41.75
22649;BME280;11491;41.942;24.220;2023-02-19T08:50:03;90199.19;;;15.04;40.51
22649;BME280;11491;41.942;24.220;2023-02-19T08:52:32;90193.91;;;15.71;37.40
22649;BME280;11491;41.942;24.220;2023-02-19T08:54:59;90189.25;;;16.02;34.77
22649;BME280;11491;41.942;24.220;2023-02-19T08:57:26;90185.88;;;16.53;33.33
22649;BME280;11491;41.942;24.220;2023-02-19T08:59:54;90187.47;;;17.03;32.68
22649;BME280;11491;41.942;24.220;2023-02-19T09:02:21;90176.75;;;17.17;34.35
22649;BME280;11491;41.942;24.220;2023-02-19T09:04:48;90186.06;;;18.07;33.09
22649;BME280;11491;41.942;24.220;2023-02-19T09:07:16;90175.75;;;18.73;33.20
22649;BME280;11491;41.942;24.220;2023-02-19T09:09:44;90173.00;;;18.56;30.29
22649;BME280;11491;41.942;24.220;2023-02-19T09:12:11;90181.16;;;18.48;30.39
22649;BME280;11491;41.942;24.220;2023-02-19T09:14:38;90171.84;;;18.32;32.15
22649;BME280;11491;41.942;24.220;2023-02-19T09:17:06;90171.00;;;18.13;30.81
22649;BME280;11491;41.942;24.220;2023-02-19T09:19:34;90171.06;;;18.27;31.76
22649;BME280;11491;41.942;24.220;2023-02-19T09:22:02;90171.06;;;18.35;30.11
22649;BME280;11491;41.942;24.220;2023-02-19T09:24:29;90153.31;;;18.59;30.35
22649;BME280;11491;41.942;24.220;2023-02-19T09:26:57;90151.34;;;19.38;29.88
22649;BME280;11491;41.942;24.220;2023-02-19T09:29:26;90162.53;;;19.54;28.02
22649;BME280;11491;41.942;24.220;2023-02-19T09:31:55;90139.63;;;19.81;28.83
22649;BME280;11491;41.942;24.220;2023-02-19T09:34:22;90147.00;;;19.80;28.06
22649;BME280;11491;41.942;24.220;2023-02-19T09:36:49;90150.09;;;19.78;28.29
22649;BME280;11491;41.942;24.220;2023-02-19T09:39:16;90150.06;;;19.82;31.23
22649;BME280;11491;41.942;24.220;2023-02-19T09:41:45;90128.19;;;20.14;30.11
22649;BME280;11491;41.942;24.220;2023-02-19T09:44:21;90139.44;;;20.79;27.74
22649;BME280;11491;41.942;24.220;2023-02-19T09:46:50;90131.28;;;20.79;26.79
22649;BME280;11491;41.942;24.220;2023-02-19T09:49:19;90135.00;;;20.44;27.80
22649;BME280;11491;41.942;24.220;2023-02-19T09:51:50;90133.38;;;20.61;27.96
22649;BME280;11491;41.942;24.220;2023-02-19T09:54:21;90135.47;;;20.91;27.05
22649;BME280;11491;41.942;24.220;2023-02-19T09:56:49;90120.06;;;21.22;26.50
22649;BME280;11491;41.942;24.220;2023-02-19T09:59:19;90122.94;;;21.84;25.34
22649;BME280;11491;41.942;24.220;2023-02-19T10:01:48;90120.38;;;22.62;26.09
22649;BME280;11491;41.942;24.220;2023-02-19T10:04:18;90115.81;;;23.29;25.54
22649;BME280;11491;41.942;24.220;2023-02-19T10:06:45;90109.38;;;23.63;24.34
22649;BME280;11491;41.942;24.220;2023-02-19T10:09:20;90113.47;;;23.51;23.19
22649;BME280;11491;41.942;24.220;2023-02-19T10:11:48;90112.25;;;23.32;25.16
22649;BME280;11491;41.942;24.220;2023-02-19T10:14:20;90095.31;;;24.04;24.69
22649;BME280;11491;41.942;24.220;2023-02-19T10:16:51;90099.00;;;24.34;22.50
22649;BME280;11491;41.942;24.220;2023-02-19T10:19:18;90091.75;;;24.27;23.74
22649;BME280;11491;41.942;24.220;2023-02-19T10:21:45;90082.78;;;24.07;23.43
22649;BME280;11491;41.942;24.220;2023-02-19T10:24:15;90072.94;;;24.29;24.71
22649;BME280;11491;41.942;24.220;2023-02-19T10:26:43;90082.28;;;24.85;23.94
22649;BME280;11491;41.942;24.220;2023-02-19T10:29:10;90070.84;;;24.90;24.30
22649;BME280;11491;41.942;24.220;2023-02-19T10:31:38;90074.53;;;24.47;24.47
22649;BME280;11491;41.942;24.220;2023-02-19T10:34:15;90070.72;;;24.24;24.87
22649;BME280;11491;41.942;24.220;2023-02-19T10:36:43;90065.94;;;24.28;24.82
22649;BME280;11491;41.942;24.220;2023-02-19T10:39:37;90067.03;;;24.51;25.09
22649;BME280;11491;41.942;24.220;2023-02-19T10:42:13;90053.78;;;23.77;26.04
22649;BME280;11491;41.942;24.220;2023-02-19T10:44:42;90049.53;;;23.32;26.43
22649;BME280;11491;41.942;24.220;2023-02-19T10:47:17;90054.06;;;23.19;26.38
22649;BME280;11491;41.942;24.220;2023-02-19T10:49:45;90039.88;;;23.48;26.88
22649;BME280;11491;41.942;24.220;2023-02-19T10:52:17;90033.63;;;24.07;25.21
22649;BME280;11491;41.942;24.220;2023-02-19T10:54:49;90023.16;;;24.58;25.02
22649;BME280;11491;41.942;24.220;2023-02-19T10:57:28;90021.19;;;24.59;23.87
22649;BME280;11491;41.942;24.220;2023-02-19T10:59:58;90017.84;;;24.84;24.01
22649;BME280;11491;41.942;24.220;2023-02-19T11:02:29;90012.25;;;24.75;23.11
22649;BME280;11491;41.942;24.220;2023-02-19T11:05:08;90005.25;;;24.57;24.56
22649;BME280;11491;41.942;24.220;2023-02-19T11:07:43;90003.34;;;24.54;24.45
22649;BME280;11491;41.942;24.220;2023-02-19T11:10:20;89995.16;;;24.54;24.52
22649;BME280;11491;41.942;24.220;2023-02-19T11:12:49;89992.25;;;24.45;24.97
22649;BME280;11491;41.942;24.220;2023-02-19T11:15:20;89990.22;;;24.65;25.14
22649;BME280;11491;41.942;24.220;2023-02-19T11:17:56;89985.22;;;24.77;24.37
22649;BME280;11491;41.942;24.220;2023-02-19T11:20:23;89990.50;;;25.00;24.68
22649;BME280;11491;41.942;24.220;2023-02-19T11:22:50;89983.63;;;24.46;22.96
22649;BME280;11491;41.942;24.220;2023-02-19T11:25:19;89976.34;;;24.23;24.26
22649;BME280;11491;41.942;24.220;2023-02-19T11:27:55;89966.44;;;23.77;24.60
22649;BME280;11491;41.942;24.220;2023-02-19T11:30:33;89967.28;;;23.54;24.67
22649;BME280;11491;41.942;24.220;2023-02-19T11:33:26;89969.59;;;23.75;25.35
22649;BME280;11491;41.942;24.220;2023-02-19T11:35:59;89972.31;;;23.95;23.09
22649;BME280;11491;41.942;24.220;2023-02-19T11:38:26;89961.50;;;24.41;22.28
22649;BME280;11491;41.942;24.220;2023-02-19T11:41:06;89956.56;;;24.68;23.73
22649;BME280;11491;41.942;24.220;2023-02-19T11:43:47;89952.09;;;24.42;21.69
22649;BME280;11491;41.942;24.220;2023-02-19T11:46:21;89953.66;;;24.59;23.12
22649;BME280;11491;41.942;24.220;2023-02-19T11:48:56;89952.19;;;24.87;23.73
22649;BME280;11491;41.942;24.220;2023-02-19T11:51:49;89951.19;;;24.65;24.38
22649;BME280;11491;41.942;24.220;2023-02-19T11:54:28;89950.03;;;24.79;24.78
22649;BME280;11491;41.942;24.220;2023-02-19T11:57:05;89944.09;;;24.97;24.40
22649;BME280;11491;41.942;24.220;2023-02-19T11:59:42;89935.31;;;25.05;25.16
22649;BME280;11491;41.942;24.220;2023-02-19T12:02:35;89928.69;;;24.90;24.82
22649;BME280;11491;41.942;24.220;2023-02-19T12:05:38;89939.72;;;25.15;24.04
22649;BME280;11491;41.942;24.220;2023-02-19T12:11:31;89938.63;;;24.67;25.29
22649;BME280;11491;41.942;24.220;2023-02-19T12:14:12;89933.25;;;24.64;24.57
22649;BME280;11491;41.942;24.220;2023-02-19T12:16:46;89935.22;;;24.31;25.35
22649;BME280;11491;41.942;24.220;2023-02-19T12:22:16;89917.94;;;24.17;25.33
22649;BME280;11491;41.942;24.220;2023-02-19T12:25:08;89915.81;;;23.72;25.69
22649;BME280;11491;41.942;24.220;2023-02-19T12:27:57;89913.66;;;22.87;26.59
22649;BME280;11491;41.942;24.220;2023-02-19T12:30:38;89912.34;;;22.28;27.03
22649;BME280;11491;41.942;24.220;2023-02-19T12:33:23;89915.03;;;22.05;27.76
22649;BME280;11491;41.942;24.220;2023-02-19T12:36:02;89917.38;;;21.52;28.68
22649;BME280;11491;41.942;24.220;2023-02-19T12:38:42;89912.66;;;21.56;29.22
22649;BME280;11491;41.942;24.220;2023-02-19T12:41:18;89904.16;;;21.54;28.81
22649;BME280;11491;41.942;24.220;2023-02-19T12:43:52;89883.16;;;21.24;29.22
22649;BME280;11491;41.942;24.220;2023-02-19T12:46:23;89903.41;;;21.50;28.16
22649;BME280;11491;41.942;24.220;2023-02-19T12:48:54;89887.00;;;21.57;28.66
22649;BME280;11491;41.942;24.220;2023-02-19T12:51:26;89898.03;;;21.73;28.51
22649;BME280;11491;41.942;24.220;2023-02-19T12:53:59;89886.38;;;21.46;28.59
22649;BME280;11491;41.942;24.220;2023-02-19T12:56:29;89886.38;;;21.46;28.82
22649;BME280;11491;41.942;24.220;2023-02-19T12:59:02;89885.66;;;21.11;29.65
22649;BME280;11491;41.942;24.220;2023-02-19T13:01:32;89881.66;;;21.50;29.01
22649;BME280;11491;41.942;24.220;2023-02-19T13:04:14;89882.41;;;21.54;28.67
22649;BME280;11491;41.942;24.220;2023-02-19T13:06:47;89874.94;;;21.58;27.94
22649;BME280;11491;41.942;24.220;2023-02-19T13:09:22;89869.00;;;21.67;28.87
22649;BME280;11491;41.942;24.220;2023-02-19T13:11:53;89874.41;;;22.18;27.43
22649;BME280;11491;41.942;24.220;2023-02-19T13:14:25;89863.53;;;22.41;27.34
22649;BME280;11491;41.942;24.220;2023-02-19T13:16:56;89862.75;;;22.61;28.32
22649;BME280;11491;41.942;24.220;2023-02-19T13:19:25;89861.47;;;22.69;27.41
22649;BME280;11491;41.942;24.220;2023-02-19T13:21:58;89853.69;;;22.47;27.38
22649;BME280;11491;41.942;24.220;2023-02-19T13:24:48;89843.38;;;22.58;27.69